createdAt,value
2023-12-09T00:01:28.022Z,6.64
2023-12-09T00:03:55.904Z,6.67
2023-12-09T00:06:25.339Z,6.68
2023-12-09T00:08:53.239Z,6.70
2023-12-09T00:11:21.408Z,6.66
2023-12-09T00:13:49.138Z,6.69
2023-12-09T00:16:17.972Z,6.76
2023-12-09T00:18:45.740Z,6.79
2023-12-09T00:21:13.823Z,6.72
2023-12-09T00:23:47.650Z,6.71
2023-12-09T00:26:16.292Z,6.71
2023-12-09T00:28:43.977Z,6.69
2023-12-09T00:31:11.629Z,6.72
2023-12-09T00:33:39.398Z,6.69
2023-12-09T00:36:07.676Z,6.69
2023-12-09T00:38:35.398Z,6.69
2023-12-09T00:41:04.731Z,6.64
2023-12-09T00:43:32.439Z,6.62
2023-12-09T00:46:00.165Z,6.64
2023-12-09T00:48:28.154Z,6.63
2023-12-09T00:50:55.995Z,6.66
2023-12-09T00:53:23.679Z,6.66
2023-12-09T00:55:54.155Z,6.65
2023-12-09T00:58:23.201Z,6.63
2023-12-09T01:00:50.969Z,6.60
2023-12-09T01:03:18.771Z,6.61
2023-12-09T01:05:46.681Z,6.64
2023-12-09T01:08:14.582Z,6.63
2023-12-09T01:10:42.242Z,6.62
2023-12-09T01:13:10.150Z,6.67
2023-12-09T01:15:39.451Z,6.68
2023-12-09T01:18:07.217Z,6.68
2023-12-09T01:20:34.904Z,6.72
2023-12-09T01:23:02.760Z,6.72
2023-12-09T01:25:30.405Z,6.69
2023-12-09T01:27:58.058Z,6.70
2023-12-09T01:30:25.746Z,6.67
2023-12-09T01:32:54.975Z,6.67
2023-12-09T01:35:22.797Z,6.58
2023-12-09T01:37:50.475Z,6.59
2023-12-09T01:40:18.256Z,6.61
2023-12-09T01:42:46.161Z,6.60
2023-12-09T01:45:14.015Z,6.55
2023-12-09T01:47:43.529Z,6.55
2023-12-09T01:50:13.227Z,6.55
2023-12-09T01:52:41.268Z,6.59
2023-12-09T01:55:11.753Z,6.62
2023-12-09T01:57:39.929Z,6.59
2023-12-09T02:00:09.328Z,6.67
2023-12-09T02:02:37.124Z,6.59
2023-12-09T02:05:05.939Z,6.66
2023-12-09T02:07:35.634Z,6.72
2023-12-09T02:10:04.469Z,6.70
2023-12-09T02:12:39.105Z,6.69
2023-12-09T02:15:10.234Z,6.69
2023-12-09T02:17:45.158Z,6.63
2023-12-09T02:20:13.466Z,6.68
2023-12-09T02:22:43.009Z,6.67
2023-12-09T02:25:12.365Z,6.67
2023-12-09T02:27:45.889Z,6.73
2023-12-09T02:30:21.694Z,6.75
2023-12-09T02:32:51.461Z,6.81
2023-12-09T02:35:21.234Z,6.81
2023-12-09T02:37:50.278Z,6.81
2023-12-09T02:40:20.603Z,6.76
2023-12-09T02:42:50.397Z,6.74
2023-12-09T02:45:20.417Z,6.79
2023-12-09T02:47:48.324Z,6.55
2023-12-09T02:50:16.482Z,6.73
2023-12-09T02:52:44.453Z,6.69
2023-12-09T02:55:13.535Z,6.66
2023-12-09T02:57:42.549Z,6.65
2023-12-09T03:00:11.375Z,6.72
2023-12-09T03:02:39.115Z,6.62
2023-12-09T03:05:07.114Z,6.60
2023-12-09T03:07:34.820Z,6.54
2023-12-09T03:10:02.437Z,6.50
2023-12-09T03:12:30.352Z,6.50
2023-12-09T03:14:59.586Z,6.41
2023-12-09T03:17:27.303Z,6.36
2023-12-09T03:19:55.013Z,6.35
2023-12-09T03:22:22.632Z,6.27
2023-12-09T03:24:50.393Z,6.27
2023-12-09T03:27:18.017Z,6.29
2023-12-09T03:29:45.714Z,6.27
2023-12-09T03:32:15.059Z,6.28
2023-12-09T03:34:45.204Z,6.26
2023-12-09T03:37:12.989Z,6.26
2023-12-09T03:39:40.740Z,6.25
2023-12-09T03:42:08.453Z,6.18
2023-12-09T03:44:36.188Z,6.12
2023-12-09T03:47:09.441Z,6.16
2023-12-09T03:49:43.768Z,6.12
2023-12-09T03:52:11.486Z,6.11
2023-12-09T03:54:40.202Z,6.16
2023-12-09T03:57:07.913Z,6.11
2023-12-09T03:59:35.629Z,6.12
2023-12-09T04:02:03.319Z,6.17
2023-12-09T04:04:31.314Z,6.13
2023-12-09T04:07:00.337Z,6.11
2023-12-09T04:09:28.121Z,5.97
2023-12-09T04:11:55.867Z,6.05
2023-12-09T04:14:23.541Z,6.03
2023-12-09T04:16:51.213Z,5.99
2023-12-09T04:19:18.971Z,5.97
2023-12-09T04:21:46.733Z,6.00
2023-12-09T04:24:15.746Z,5.98
2023-12-09T04:26:43.511Z,5.94
2023-12-09T04:29:11.280Z,5.91
2023-12-09T04:31:39.133Z,5.91
2023-12-09T04:34:06.827Z,5.86
2023-12-09T04:36:34.704Z,5.79
2023-12-09T04:39:02.424Z,5.88
2023-12-09T04:41:31.489Z,5.81
2023-12-09T04:43:59.102Z,5.81
2023-12-09T04:46:27.345Z,5.75
2023-12-09T04:48:55.134Z,5.75
2023-12-09T04:51:22.849Z,5.69
2023-12-09T04:53:51.723Z,5.65
2023-12-09T04:56:19.424Z,5.66
2023-12-09T04:58:48.527Z,5.65
2023-12-09T05:01:16.295Z,5.62
2023-12-09T05:03:44.109Z,5.55
2023-12-09T05:06:11.937Z,5.53
2023-12-09T05:08:43.134Z,5.52
2023-12-09T05:11:11.271Z,5.53
2023-12-09T05:13:38.992Z,5.51
2023-12-09T05:16:08.515Z,5.52
2023-12-09T05:18:36.512Z,5.48
2023-12-09T05:21:06.199Z,5.45
2023-12-09T05:23:34.665Z,5.30
2023-12-09T05:26:02.357Z,5.50
2023-12-09T05:28:31.257Z,5.43
2023-12-09T05:30:59.483Z,5.40
2023-12-09T05:33:28.672Z,5.43
2023-12-09T05:35:56.387Z,5.44
2023-12-09T05:38:24.058Z,5.41
2023-12-09T05:40:51.700Z,5.35
2023-12-09T05:43:19.385Z,5.31
2023-12-09T05:45:47.255Z,5.31
2023-12-09T05:48:15.142Z,5.31
2023-12-09T05:50:44.240Z,5.38
2023-12-09T05:53:11.927Z,5.32
2023-12-09T05:55:39.611Z,5.26
2023-12-09T05:58:07.973Z,5.34
2023-12-09T06:00:37.129Z,5.31
2023-12-09T06:03:05.184Z,5.30
2023-12-09T06:05:32.933Z,5.21
2023-12-09T06:08:02.079Z,5.14
2023-12-09T06:10:29.726Z,5.10
2023-12-09T06:12:57.409Z,5.09
2023-12-09T06:15:25.182Z,5.12
2023-12-09T06:17:54.308Z,5.07
2023-12-09T06:20:22.443Z,5.11
2023-12-09T06:22:50.133Z,5.11
2023-12-09T06:25:19.508Z,5.13
2023-12-09T06:27:47.193Z,5.08
2023-12-09T06:30:15.361Z,5.00
2023-12-09T06:32:44.773Z,5.16
2023-12-09T06:35:12.616Z,5.05
2023-12-09T06:37:40.275Z,5.07
2023-12-09T06:40:09.651Z,5.05
2023-12-09T06:42:39.369Z,5.05
2023-12-09T06:45:08.133Z,5.04
2023-12-09T06:47:36.264Z,5.05
2023-12-09T06:50:04.213Z,5.02
2023-12-09T06:52:31.856Z,5.04
2023-12-09T06:54:59.774Z,5.06
2023-12-09T06:57:28.315Z,5.01
2023-12-09T06:59:57.424Z,4.99
2023-12-09T07:02:25.391Z,4.97
2023-12-09T07:04:53.782Z,4.93
2023-12-09T07:07:22.566Z,4.94
2023-12-09T07:09:50.439Z,4.95
2023-12-09T07:12:18.143Z,5.04
2023-12-09T07:14:45.828Z,4.94
2023-12-09T07:17:14.922Z,4.90
2023-12-09T07:19:43.923Z,4.89
2023-12-09T07:22:11.670Z,4.90
2023-12-09T07:24:39.428Z,4.94
2023-12-09T07:27:07.146Z,5.03
2023-12-09T07:29:34.825Z,5.12
2023-12-09T07:32:02.784Z,5.09
2023-12-09T07:34:31.910Z,5.13
2023-12-09T07:36:59.647Z,5.20
2023-12-09T07:39:27.339Z,5.19
2023-12-09T07:41:55.229Z,5.30
2023-12-09T07:44:22.981Z,5.31
2023-12-09T07:46:51.933Z,5.33
2023-12-09T07:49:19.664Z,5.22
2023-12-09T07:51:48.717Z,5.49
2023-12-09T07:54:16.706Z,5.48
2023-12-09T07:56:44.460Z,5.45
2023-12-09T07:59:12.144Z,5.47
2023-12-09T08:01:41.395Z,5.52
2023-12-09T08:04:09.159Z,5.52
2023-12-09T08:06:36.954Z,5.61
2023-12-09T08:09:06.045Z,5.68
2023-12-09T08:11:33.824Z,5.68
2023-12-09T08:14:01.505Z,5.80
2023-12-09T08:16:29.186Z,5.81
2023-12-09T08:18:57.092Z,5.87
2023-12-09T08:21:25.917Z,5.97
2023-12-09T08:23:55.392Z,5.93
2023-12-09T08:26:24.451Z,5.95
2023-12-09T08:28:52.151Z,6.06
2023-12-09T08:31:19.834Z,6.05
2023-12-09T08:33:47.653Z,6.03
2023-12-09T08:36:15.639Z,6.07
2023-12-09T08:38:43.348Z,6.07
2023-12-09T08:41:11.008Z,6.05
2023-12-09T08:43:40.130Z,6.14
2023-12-09T08:46:07.798Z,6.12
2023-12-09T08:48:35.722Z,6.29
2023-12-09T08:51:04.708Z,6.24
2023-12-09T08:53:32.853Z,6.29
2023-12-09T08:56:00.540Z,6.28
2023-12-09T08:58:28.216Z,6.33
2023-12-09T09:00:57.331Z,6.33
2023-12-09T09:03:25.284Z,6.36
2023-12-09T09:05:53.146Z,6.39
2023-12-09T09:08:20.845Z,6.42
2023-12-09T09:10:48.584Z,6.51
2023-12-09T09:13:16.226Z,6.55
2023-12-09T09:15:44.193Z,6.59
2023-12-09T09:18:14.831Z,6.71
2023-12-09T09:20:43.943Z,6.71
2023-12-09T09:23:11.864Z,6.73
2023-12-09T09:25:39.568Z,6.76
2023-12-09T09:28:07.611Z,6.56
2023-12-09T09:30:35.959Z,6.76
2023-12-09T09:33:03.807Z,6.81
2023-12-09T09:35:34.214Z,6.92
2023-12-09T09:38:01.856Z,6.98
2023-12-09T09:40:29.730Z,7.05
2023-12-09T09:42:58.859Z,7.10
2023-12-09T09:45:31.500Z,6.99
2023-12-09T09:48:06.612Z,7.17
2023-12-09T09:50:43.045Z,7.16
2023-12-09T09:53:13.231Z,7.24
2023-12-09T09:55:42.477Z,7.29
2023-12-09T09:58:10.462Z,7.34
2023-12-09T10:00:39.857Z,7.33
2023-12-09T10:03:07.985Z,7.25
2023-12-09T10:05:37.130Z,7.28
2023-12-09T10:08:06.552Z,7.34
2023-12-09T10:10:35.694Z,7.30
2023-12-09T10:13:03.533Z,7.31
2023-12-09T10:15:32.892Z,7.32
2023-12-09T10:18:04.568Z,7.36
2023-12-09T10:20:32.600Z,7.33
2023-12-09T10:23:02.372Z,7.36
2023-12-09T10:25:30.319Z,7.36
2023-12-09T10:27:59.501Z,7.34
2023-12-09T10:30:27.340Z,7.29
2023-12-09T10:32:55.447Z,7.35
2023-12-09T10:35:23.487Z,7.33
2023-12-09T10:37:51.691Z,7.34
2023-12-09T10:40:23.706Z,7.37
2023-12-09T10:42:53.096Z,7.38
2023-12-09T10:45:20.894Z,7.36
2023-12-09T10:47:49.371Z,7.33
2023-12-09T10:50:18.040Z,7.36
2023-12-09T10:52:45.744Z,7.52
2023-12-09T10:55:13.583Z,7.50
2023-12-09T10:57:44.559Z,7.57
2023-12-09T11:00:16.356Z,7.55
2023-12-09T11:02:45.703Z,7.59
2023-12-09T11:05:14.170Z,7.67
2023-12-09T11:07:43.633Z,7.68
2023-12-09T11:10:12.263Z,7.66
2023-12-09T11:12:40.051Z,7.65
2023-12-09T11:15:19.451Z,7.62
2023-12-09T11:17:51.141Z,7.63
2023-12-09T11:20:21.673Z,7.62
2023-12-09T11:22:49.826Z,7.64
2023-12-09T11:25:23.625Z,7.72
2023-12-09T11:27:52.565Z,7.71
2023-12-09T11:30:36.095Z,7.63
2023-12-09T11:33:05.500Z,7.75
2023-12-09T11:35:35.261Z,7.81
2023-12-09T11:38:05.848Z,7.83
2023-12-09T11:40:34.570Z,7.83
2023-12-09T11:43:04.399Z,7.89
2023-12-09T11:45:32.218Z,7.93
2023-12-09T11:48:04.793Z,7.81
2023-12-09T11:50:32.566Z,7.82
2023-12-09T11:53:01.032Z,7.82
2023-12-09T11:55:28.707Z,7.73
2023-12-09T11:57:56.405Z,7.74
2023-12-09T12:00:24.190Z,7.82
2023-12-09T12:02:51.940Z,7.81
2023-12-09T12:05:21.293Z,7.70
2023-12-09T12:07:49.156Z,7.79
2023-12-09T12:10:17.027Z,7.71
2023-12-09T12:12:45.827Z,7.73
2023-12-09T12:15:14.589Z,7.74
2023-12-09T12:17:43.335Z,7.73
2023-12-09T12:20:13.484Z,7.70
2023-12-09T12:22:43.361Z,7.78
2023-12-09T12:25:11.734Z,7.74
2023-12-09T12:27:47.084Z,7.73
2023-12-09T12:30:15.727Z,7.72
2023-12-09T12:32:44.400Z,7.52
2023-12-09T12:35:12.714Z,7.73
2023-12-09T12:37:42.594Z,7.76
2023-12-09T12:40:13.500Z,7.77
2023-12-09T12:42:43.689Z,7.76
2023-12-09T12:45:19.319Z,7.72
2023-12-09T12:47:47.378Z,7.76
2023-12-09T12:50:15.673Z,7.75
2023-12-09T12:52:46.983Z,7.76
2023-12-09T12:55:14.792Z,7.75
2023-12-09T12:57:42.930Z,7.78
2023-12-09T13:00:13.073Z,7.77
2023-12-09T13:02:41.080Z,7.82
2023-12-09T13:05:09.265Z,7.83
2023-12-09T13:07:37.063Z,7.86
2023-12-09T13:10:07.599Z,7.94
2023-12-09T13:12:35.860Z,7.92
2023-12-09T13:15:04.057Z,8.13
2023-12-09T13:17:31.987Z,8.16
2023-12-09T13:19:59.869Z,8.16
2023-12-09T13:22:27.979Z,8.16
2023-12-09T13:24:55.982Z,8.16
2023-12-09T13:27:25.457Z,8.09
2023-12-09T13:29:53.239Z,8.11
2023-12-09T13:32:20.970Z,8.11
2023-12-09T13:34:48.782Z,8.06
2023-12-09T13:37:17.030Z,8.00
2023-12-09T13:39:45.058Z,8.04
2023-12-09T13:42:13.873Z,8.01
2023-12-09T13:44:43.166Z,8.02
2023-12-09T13:47:10.935Z,7.97
2023-12-09T13:49:38.862Z,7.94
2023-12-09T13:52:06.970Z,7.97
2023-12-09T13:54:37.574Z,7.87
2023-12-09T13:57:05.520Z,7.88
2023-12-09T13:59:33.401Z,7.86
2023-12-09T14:02:02.668Z,7.85
2023-12-09T14:04:30.508Z,7.88
2023-12-09T14:06:58.322Z,7.87
2023-12-09T14:09:26.117Z,7.82
2023-12-09T14:11:53.899Z,7.83
2023-12-09T14:14:21.721Z,7.78
2023-12-09T14:16:49.559Z,7.53
2023-12-09T14:19:18.896Z,7.63
2023-12-09T14:21:46.728Z,7.64
2023-12-09T14:24:14.613Z,7.60
2023-12-09T14:26:42.391Z,7.50
2023-12-09T14:29:10.140Z,7.42
2023-12-09T14:31:38.784Z,7.25
2023-12-09T14:34:07.307Z,7.08
2023-12-09T14:36:36.726Z,7.16
2023-12-09T14:39:04.740Z,7.17
2023-12-09T14:41:32.576Z,7.22
2023-12-09T14:44:06.095Z,7.09
2023-12-09T14:46:36.872Z,7.14
2023-12-09T14:49:05.323Z,7.02
2023-12-09T14:51:40.941Z,6.89
2023-12-09T14:54:15.451Z,6.93
2023-12-09T14:56:44.941Z,6.83
2023-12-09T14:59:13.146Z,6.76
2023-12-09T15:01:41.227Z,6.78
2023-12-09T15:04:09.222Z,6.71
2023-12-09T15:06:37.141Z,6.76
2023-12-09T15:09:05.388Z,6.67
2023-12-09T15:11:34.622Z,6.66
2023-12-09T15:14:02.527Z,6.62
2023-12-09T15:16:30.481Z,6.62
2023-12-09T15:18:58.393Z,6.54
2023-12-09T15:21:26.365Z,6.49
2023-12-09T15:23:54.243Z,6.33
2023-12-09T15:26:22.065Z,6.35
2023-12-09T15:28:54.412Z,6.38
2023-12-09T15:31:22.285Z,6.31
2023-12-09T15:33:50.276Z,6.14
2023-12-09T15:36:18.625Z,6.27
2023-12-09T15:38:46.881Z,6.29
2023-12-09T15:41:14.642Z,6.25
2023-12-09T15:43:42.465Z,6.12
2023-12-09T15:46:11.774Z,6.16
2023-12-09T15:48:41.217Z,6.15
2023-12-09T15:51:09.118Z,6.18
2023-12-09T15:53:38.599Z,6.19
2023-12-09T15:56:07.800Z,6.17
2023-12-09T15:58:36.096Z,6.17
2023-12-09T16:01:04.451Z,6.18
2023-12-09T16:03:33.925Z,6.17
2023-12-09T16:06:02.076Z,6.15
2023-12-09T16:08:29.909Z,6.18
2023-12-09T16:10:57.668Z,6.06
2023-12-09T16:13:26.051Z,6.14
2023-12-09T16:15:54.201Z,6.12
2023-12-09T16:18:22.229Z,6.15
2023-12-09T16:20:51.563Z,6.15
2023-12-09T16:23:19.324Z,6.20
2023-12-09T16:25:47.093Z,6.21
2023-12-09T16:28:14.975Z,6.24
2023-12-09T16:30:42.771Z,6.22
2023-12-09T16:33:10.659Z,6.21
2023-12-09T16:35:38.776Z,5.82
2023-12-09T16:38:10.622Z,6.26
2023-12-09T16:40:38.605Z,6.25
2023-12-09T16:43:06.463Z,6.25
2023-12-09T16:45:34.254Z,6.28
2023-12-09T16:48:02.999Z,6.18
2023-12-09T16:50:30.875Z,6.24
2023-12-09T16:52:58.608Z,6.31
2023-12-09T16:55:27.811Z,6.33
2023-12-09T16:57:55.832Z,6.38
2023-12-09T17:00:23.728Z,6.35
2023-12-09T17:02:51.567Z,6.35
2023-12-09T17:05:19.468Z,6.37
2023-12-09T17:07:47.285Z,6.35
2023-12-09T17:10:15.171Z,6.38
2023-12-09T17:12:44.305Z,6.46
2023-12-09T17:15:12.500Z,6.49
2023-12-09T17:17:40.440Z,6.53
2023-12-09T17:20:09.910Z,6.64
2023-12-09T17:22:37.678Z,6.61
2023-12-09T17:25:05.962Z,6.54
2023-12-09T17:27:33.957Z,6.56
2023-12-09T17:30:03.304Z,6.61
2023-12-09T17:32:31.247Z,6.60
2023-12-09T17:34:59.249Z,6.51
2023-12-09T17:37:27.063Z,6.53
2023-12-09T17:39:54.983Z,6.37
2023-12-09T17:42:22.864Z,6.49
2023-12-09T17:44:50.649Z,6.51
2023-12-09T17:47:19.752Z,6.51
2023-12-09T17:49:47.590Z,6.52
2023-12-09T17:52:15.377Z,6.54
2023-12-09T17:54:43.219Z,6.47
2023-12-09T17:57:11.742Z,6.49
2023-12-09T17:59:38.799Z,6.60
2023-12-09T18:02:07.152Z,6.67
2023-12-09T18:04:36.267Z,6.63
2023-12-09T18:07:04.261Z,6.64
2023-12-09T18:09:32.052Z,6.63
2023-12-09T18:12:00.085Z,6.65
2023-12-09T18:14:27.912Z,6.69
2023-12-09T18:16:57.253Z,6.73
2023-12-09T18:19:25.410Z,6.71
2023-12-09T18:21:54.763Z,6.72
2023-12-09T18:24:22.604Z,6.70
2023-12-09T18:26:51.008Z,6.71
2023-12-09T18:29:18.800Z,6.70
2023-12-09T18:31:46.670Z,6.70
2023-12-09T18:34:14.666Z,6.63
2023-12-09T18:36:43.244Z,6.70
2023-12-09T18:39:12.564Z,6.74
2023-12-09T18:41:40.345Z,6.68
2023-12-09T18:44:08.162Z,6.73
2023-12-09T18:46:35.928Z,6.80
2023-12-09T18:49:03.734Z,6.81
2023-12-09T18:51:31.628Z,6.75
2023-12-09T18:53:59.393Z,6.84
2023-12-09T18:56:28.722Z,6.55
2023-12-09T18:58:56.503Z,6.86
2023-12-09T19:01:24.379Z,7.06
2023-12-09T19:03:52.664Z,7.15
2023-12-09T19:06:20.670Z,7.29
2023-12-09T19:08:48.441Z,7.34
2023-12-09T19:11:16.233Z,7.43
2023-12-09T19:13:45.718Z,7.45
2023-12-09T19:16:13.763Z,7.43
2023-12-09T19:18:42.525Z,7.41
2023-12-09T19:21:10.381Z,7.36
2023-12-09T19:23:38.169Z,7.36
2023-12-09T19:26:06.329Z,7.44
2023-12-09T19:28:34.084Z,7.49
2023-12-09T19:31:03.239Z,7.50
2023-12-09T19:33:31.178Z,7.50
2023-12-09T19:35:59.604Z,7.49
2023-12-09T19:38:27.415Z,7.52
2023-12-09T19:40:55.132Z,7.54
2023-12-09T19:43:22.921Z,7.60
2023-12-09T19:45:51.287Z,7.60
2023-12-09T19:48:20.724Z,7.68
2023-12-09T19:50:48.685Z,7.70
2023-12-09T19:53:16.633Z,7.70
2023-12-09T19:55:44.398Z,7.76
2023-12-09T19:58:12.152Z,7.80
2023-12-09T20:00:40.992Z,7.82
2023-12-09T20:03:09.931Z,7.84
2023-12-09T20:05:39.095Z,7.92
2023-12-09T20:08:07.289Z,7.87
2023-12-09T20:10:35.066Z,7.95
2023-12-09T20:13:02.786Z,7.94
2023-12-09T20:15:31.099Z,7.97
2023-12-09T20:18:00.152Z,7.96
2023-12-09T20:20:30.227Z,8.01
2023-12-09T20:23:00.338Z,8.02
2023-12-09T20:25:28.125Z,8.00
2023-12-09T20:27:57.723Z,8.08
2023-12-09T20:30:25.533Z,8.14
2023-12-09T20:32:53.371Z,8.14
2023-12-09T20:35:21.166Z,8.14
2023-12-09T20:37:49.229Z,8.12
2023-12-09T20:40:18.508Z,8.12
2023-12-09T20:42:46.356Z,8.21
2023-12-09T20:45:14.703Z,8.18
2023-12-09T20:47:42.578Z,8.21
2023-12-09T20:50:11.284Z,8.20
2023-12-09T20:52:39.345Z,8.10
2023-12-09T20:55:08.264Z,8.31
2023-12-09T20:57:37.467Z,8.26
2023-12-09T21:00:06.692Z,8.09
2023-12-09T21:02:34.562Z,8.08
2023-12-09T21:05:04.869Z,8.24
2023-12-09T21:07:33.456Z,8.23
2023-12-09T21:10:01.228Z,8.17
2023-12-09T21:12:29.563Z,8.24
2023-12-09T21:14:59.037Z,8.19
2023-12-09T21:17:26.888Z,8.15
2023-12-09T21:19:54.851Z,8.15
2023-12-09T21:22:22.605Z,8.15
2023-12-09T21:24:50.471Z,8.18
2023-12-09T21:27:18.392Z,8.18
2023-12-09T21:29:46.188Z,8.21
2023-12-09T21:32:15.311Z,8.19
2023-12-09T21:34:43.223Z,8.23
2023-12-09T21:37:11.043Z,8.23
2023-12-09T21:39:39.150Z,8.18
2023-12-09T21:42:08.381Z,8.25
2023-12-09T21:44:36.509Z,8.24
2023-12-09T21:47:03.467Z,7.80
2023-12-09T21:49:32.704Z,8.22
2023-12-09T21:52:00.558Z,8.32
2023-12-09T21:54:28.351Z,8.39
2023-12-09T21:56:56.190Z,8.34
2023-12-09T21:59:23.935Z,8.34
2023-12-09T22:01:52.145Z,8.32
2023-12-09T22:04:20.113Z,8.31
2023-12-09T22:06:49.305Z,8.32
2023-12-09T22:09:17.061Z,8.30
2023-12-09T22:11:44.859Z,8.31
2023-12-09T22:14:12.902Z,8.25
2023-12-09T22:16:42.524Z,8.29
2023-12-09T22:19:10.377Z,8.27
2023-12-09T22:21:41.058Z,8.26
2023-12-09T22:24:10.446Z,8.26
2023-12-09T22:26:42.879Z,8.30
2023-12-09T22:29:10.705Z,8.21
2023-12-09T22:31:42.097Z,8.19
2023-12-09T22:34:10.838Z,8.14
2023-12-09T22:36:38.830Z,8.13
2023-12-09T22:39:09.102Z,8.10
2023-12-09T22:41:38.376Z,8.10
2023-12-09T22:44:06.253Z,8.03
2023-12-09T22:46:34.528Z,8.02
2023-12-09T22:49:02.949Z,8.12
2023-12-09T22:51:31.582Z,8.13
2023-12-09T22:54:00.283Z,8.09
2023-12-09T22:56:29.996Z,8.08
2023-12-09T22:59:00.431Z,7.97
2023-12-09T23:01:31.143Z,7.97
2023-12-09T23:03:59.052Z,8.24
2023-12-09T23:06:26.972Z,8.32
2023-12-09T23:08:55.559Z,8.28
2023-12-09T23:11:23.403Z,8.28
2023-12-09T23:13:51.226Z,8.30
2023-12-09T23:16:20.335Z,8.29
2023-12-09T23:18:48.299Z,8.35
2023-12-09T23:21:16.320Z,8.38
2023-12-09T23:23:44.376Z,8.26
2023-12-09T23:26:12.219Z,8.31
2023-12-09T23:28:39.978Z,7.88
2023-12-09T23:31:07.966Z,8.31
2023-12-09T23:33:37.261Z,8.33
2023-12-09T23:36:05.762Z,8.31
2023-12-09T23:38:33.521Z,8.29
2023-12-09T23:41:01.576Z,8.33
2023-12-09T23:43:29.462Z,8.22
2023-12-09T23:45:57.206Z,8.36
2023-12-09T23:48:25.123Z,8.41
2023-12-09T23:50:54.457Z,8.47
2023-12-09T23:53:22.214Z,8.46
2023-12-09T23:55:49.989Z,8.45
2023-12-09T23:58:17.957Z,8.37
